sensor_id;sensor_type;location;lat;lon;timestamp;pressure;altitude;pressure_sealevel;temperature
60731;BMP280;46580;52.114;11.674;2023-04-26T00:00:16;101002.94;;;4.67
60731;BMP280;46580;52.114;11.674;2023-04-26T00:02:41;101008.03;;;4.67
60731;BMP280;46580;52.114;11.674;2023-04-26T00:05:07;101002.09;;;4.67
60731;BMP280;46580;52.114;11.674;2023-04-26T00:07:33;101001.91;;;4.71
60731;BMP280;46580;52.114;11.674;2023-04-26T00:09:58;101004.66;;;4.67
60731;BMP280;46580;52.114;11.674;2023-04-26T00:12:23;101000.53;;;4.64
60731;BMP280;46580;52.114;11.674;2023-04-26T00:14:49;101003.16;;;4.63
60731;BMP280;46580;52.114;11.674;2023-04-26T00:17:14;101006.72;;;4.59
60731;BMP280;46580;52.114;11.674;2023-04-26T00:19:40;101000.97;;;4.56
60731;BMP280;46580;52.114;11.674;2023-04-26T00:22:05;101009.56;;;4.53
60731;BMP280;46580;52.114;11.674;2023-04-26T00:24:31;101010.56;;;4.51
60731;BMP280;46580;52.114;11.674;2023-04-26T00:26:56;101015.72;;;4.49
60731;BMP280;46580;52.114;11.674;2023-04-26T00:29:22;101011.66;;;4.45
60731;BMP280;46580;52.114;11.674;2023-04-26T00:31:47;101011.59;;;4.47
60731;BMP280;46580;52.114;11.674;2023-04-26T00:34:12;101014.34;;;4.43
60731;BMP280;46580;52.114;11.674;2023-04-26T00:36:38;101017.81;;;4.42
60731;BMP280;46580;52.114;11.674;2023-04-26T00:39:03;101015.19;;;4.43
60731;BMP280;46580;52.114;11.674;2023-04-26T00:41:29;101016.16;;;4.41
60731;BMP280;46580;52.114;11.674;2023-04-26T00:43:54;101014.56;;;4.38
60731;BMP280;46580;52.114;11.674;2023-04-26T00:46:20;101019.75;;;4.37
60731;BMP280;46580;52.114;11.674;2023-04-26T00:48:46;101020.63;;;4.36
60731;BMP280;46580;52.114;11.674;2023-04-26T00:51:12;101017.31;;;4.34
60731;BMP280;46580;52.114;11.674;2023-04-26T00:53:38;101024.19;;;4.32
60731;BMP280;46580;52.114;11.674;2023-04-26T00:56:05;101026.75;;;4.32
60731;BMP280;46580;52.114;11.674;2023-04-26T00:58:32;101025.13;;;4.31
60731;BMP280;46580;52.114;11.674;2023-04-26T01:00:57;101024.38;;;4.29
60731;BMP280;46580;52.114;11.674;2023-04-26T01:03:23;101023.59;;;4.27
60731;BMP280;46580;52.114;11.674;2023-04-26T01:05:49;101027.94;;;4.25
60731;BMP280;46580;52.114;11.674;2023-04-26T01:08:14;101026.44;;;4.21
60731;BMP280;46580;52.114;11.674;2023-04-26T01:10:45;101031.66;;;4.18
60731;BMP280;46580;52.114;11.674;2023-04-26T01:13:11;101027.53;;;4.16
60731;BMP280;46580;52.114;11.674;2023-04-26T01:15:37;101022.44;;;4.16
60731;BMP280;46580;52.114;11.674;2023-04-26T01:18:03;101028.38;;;4.16
60731;BMP280;46580;52.114;11.674;2023-04-26T01:20:28;101039.22;;;4.20
60731;BMP280;46580;52.114;11.674;2023-04-26T01:22:54;101030.03;;;4.17
60731;BMP280;46580;52.114;11.674;2023-04-26T01:25:21;101028.38;;;4.16
60731;BMP280;46580;52.114;11.674;2023-04-26T01:27:46;101035.19;;;4.16
60731;BMP280;46580;52.114;11.674;2023-04-26T01:30:12;101033.38;;;4.18
60731;BMP280;46580;52.114;11.674;2023-04-26T01:32:37;101035.03;;;4.19
60731;BMP280;46580;52.114;11.674;2023-04-26T01:35:02;101035.91;;;4.18
60731;BMP280;46580;52.114;11.674;2023-04-26T01:37:29;101036.91;;;4.15
60731;BMP280;46580;52.114;11.674;2023-04-26T01:39:55;101034.41;;;4.14
60731;BMP280;46580;52.114;11.674;2023-04-26T01:42:20;101039.56;;;4.12
60731;BMP280;46580;52.114;11.674;2023-04-26T01:44:46;101043.78;;;4.13
60731;BMP280;46580;52.114;11.674;2023-04-26T01:47:11;101032.09;;;4.09
60731;BMP280;46580;52.114;11.674;2023-04-26T01:49:36;101038.06;;;4.08
60731;BMP280;46580;52.114;11.674;2023-04-26T01:52:02;101043.28;;;4.06
60731;BMP280;46580;52.114;11.674;2023-04-26T01:54:27;101043.28;;;4.06
60731;BMP280;46580;52.114;11.674;2023-04-26T01:56:53;101051.09;;;4.03
60731;BMP280;46580;52.114;11.674;2023-04-26T01:59:18;101049.56;;;3.99
60731;BMP280;46580;52.114;11.674;2023-04-26T02:01:43;101042.00;;;3.97
60731;BMP280;46580;52.114;11.674;2023-04-26T02:04:09;101051.47;;;3.94
60731;BMP280;46580;52.114;11.674;2023-04-26T02:06:35;101047.44;;;3.90
60731;BMP280;46580;52.114;11.674;2023-04-26T02:09:04;101046.50;;;3.91
60731;BMP280;46580;52.114;11.674;2023-04-26T02:11:30;101044.94;;;3.89
60731;BMP280;46580;52.114;11.674;2023-04-26T02:13:55;101043.22;;;3.89
60731;BMP280;46580;52.114;11.674;2023-04-26T02:16:21;101050.22;;;3.84
60731;BMP280;46580;52.114;11.674;2023-04-26T02:18:46;101050.38;;;3.81
60731;BMP280;46580;52.114;11.674;2023-04-26T02:21:15;101056.41;;;3.79
60731;BMP280;46580;52.114;11.674;2023-04-26T02:23:41;101045.56;;;3.75
60731;BMP280;46580;52.114;11.674;2023-04-26T02:26:06;101053.94;;;3.77
60731;BMP280;46580;52.114;11.674;2023-04-26T02:28:31;101052.22;;;3.78
60731;BMP280;46580;52.114;11.674;2023-04-26T02:30:57;101054.03;;;3.76
60731;BMP280;46580;52.114;11.674;2023-04-26T02:33:22;101051.53;;;3.74
60731;BMP280;46580;52.114;11.674;2023-04-26T02:35:47;101049.09;;;3.71
60731;BMP280;46580;52.114;11.674;2023-04-26T02:38:13;101051.75;;;3.70
60731;BMP280;46580;52.114;11.674;2023-04-26T02:40:38;101047.59;;;3.68
60731;BMP280;46580;52.114;11.674;2023-04-26T02:43:03;101052.69;;;3.68
60731;BMP280;46580;52.114;11.674;2023-04-26T02:45:29;101053.63;;;3.65
60731;BMP280;46580;52.114;11.674;2023-04-26T02:47:54;101054.69;;;3.61
60731;BMP280;46580;52.114;11.674;2023-04-26T02:50:20;101047.16;;;3.58
60731;BMP280;46580;52.114;11.674;2023-04-26T02:52:45;101042.78;;;3.62
60731;BMP280;46580;52.114;11.674;2023-04-26T02:55:10;101039.53;;;3.58
60731;BMP280;46580;52.114;11.674;2023-04-26T02:57:36;101059.97;;;3.57
60731;BMP280;46580;52.114;11.674;2023-04-26T03:00:01;101047.25;;;3.57
60731;BMP280;46580;52.114;11.674;2023-04-26T03:02:29;101050.59;;;3.57
60731;BMP280;46580;52.114;11.674;2023-04-26T03:04:54;101055.88;;;3.53
60731;BMP280;46580;52.114;11.674;2023-04-26T03:07:20;101053.41;;;3.52
60731;BMP280;46580;52.114;11.674;2023-04-26T03:09:45;101058.56;;;3.50
60731;BMP280;46580;52.114;11.674;2023-04-26T03:12:11;101051.94;;;3.46
60731;BMP280;46580;52.114;11.674;2023-04-26T03:14:37;101051.00;;;3.49
60731;BMP280;46580;52.114;11.674;2023-04-26T03:17:03;101050.16;;;3.48
60731;BMP280;46580;52.114;11.674;2023-04-26T03:19:28;101055.38;;;3.45
60731;BMP280;46580;52.114;11.674;2023-04-26T03:21:54;101055.38;;;3.45
60731;BMP280;46580;52.114;11.674;2023-04-26T03:24:20;101050.44;;;3.42
60731;BMP280;46580;52.114;11.674;2023-04-26T03:26:45;101053.72;;;3.44
60731;BMP280;46580;52.114;11.674;2023-04-26T03:29:12;101042.72;;;3.44
60731;BMP280;46580;52.114;11.674;2023-04-26T03:31:38;101046.09;;;3.44
60731;BMP280;46580;52.114;11.674;2023-04-26T03:34:04;101050.16;;;3.48
60731;BMP280;46580;52.114;11.674;2023-04-26T03:36:29;101051.25;;;3.43
60731;BMP280;46580;52.114;11.674;2023-04-26T03:38:55;101057.25;;;3.42
60731;BMP280;46580;52.114;11.674;2023-04-26T03:41:20;101047.75;;;3.45
60731;BMP280;46580;52.114;11.674;2023-04-26T03:43:48;101050.28;;;3.45
60731;BMP280;46580;52.114;11.674;2023-04-26T03:46:13;101057.91;;;3.45
60731;BMP280;46580;52.114;11.674;2023-04-26T03:48:38;101060.47;;;3.45
60731;BMP280;46580;52.114;11.674;2023-04-26T03:51:04;101050.28;;;3.45
60731;BMP280;46580;52.114;11.674;2023-04-26T03:53:30;101056.25;;;3.44
60731;BMP280;46580;52.114;11.674;2023-04-26T03:55:55;101055.53;;;3.42
60731;BMP280;46580;52.114;11.674;2023-04-26T03:58:22;101054.75;;;3.40
60731;BMP280;46580;52.114;11.674;2023-04-26T04:00:47;101065.69;;;3.42
60731;BMP280;46580;52.114;11.674;2023-04-26T04:03:13;101058.97;;;3.41
60731;BMP280;46580;52.114;11.674;2023-04-26T04:05:38;101064.88;;;3.42
60731;BMP280;46580;52.114;11.674;2023-04-26T04:08:03;101070.78;;;3.42
60731;BMP280;46580;52.114;11.674;2023-04-26T04:10:29;101064.88;;;3.42
60731;BMP280;46580;52.114;11.674;2023-04-26T04:12:54;101059.91;;;3.39
60731;BMP280;46580;52.114;11.674;2023-04-26T04:15:20;101065.81;;;3.39
60731;BMP280;46580;52.114;11.674;2023-04-26T04:17:45;101058.19;;;3.39
60731;BMP280;46580;52.114;11.674;2023-04-26T04:20:11;101058.56;;;3.50
60731;BMP280;46580;52.114;11.674;2023-04-26T04:22:37;101057.97;;;3.44
60731;BMP280;46580;52.114;11.674;2023-04-26T04:25:07;101058.75;;;3.46
60731;BMP280;46580;52.114;11.674;2023-04-26T04:27:36;101072.19;;;3.49
60731;BMP280;46580;52.114;11.674;2023-04-26T04:30:04;101060.34;;;3.48
60731;BMP280;46580;52.114;11.674;2023-04-26T04:32:31;101065.38;;;3.50
60731;BMP280;46580;52.114;11.674;2023-04-26T04:34:57;101075.47;;;3.51
60731;BMP280;46580;52.114;11.674;2023-04-26T04:37:23;101072.94;;;3.51
60731;BMP280;46580;52.114;11.674;2023-04-26T04:39:50;101071.16;;;3.53
60731;BMP280;46580;52.114;11.674;2023-04-26T04:42:16;101081.22;;;3.56
60731;BMP280;46580;52.114;11.674;2023-04-26T04:44:41;101090.50;;;3.57
60731;BMP280;46580;52.114;11.674;2023-04-26T04:47:07;101078.53;;;3.59
60731;BMP280;46580;52.114;11.674;2023-04-26T04:49:32;101086.88;;;3.62
60731;BMP280;46580;52.114;11.674;2023-04-26T04:51:58;101083.34;;;3.65
60731;BMP280;46580;52.114;11.674;2023-04-26T04:54:24;101081.63;;;3.65
60731;BMP280;46580;52.114;11.674;2023-04-26T04:56:49;101091.63;;;3.70
60731;BMP280;46580;52.114;11.674;2023-04-26T04:59:15;101093.16;;;3.73
60731;BMP280;46580;52.114;11.674;2023-04-26T05:01:40;101091.31;;;3.77
60731;BMP280;46580;52.114;11.674;2023-04-26T05:04:05;101082.53;;;3.84
60731;BMP280;46580;52.114;11.674;2023-04-26T05:06:31;101081.41;;;3.89
60731;BMP280;46580;52.114;11.674;2023-04-26T05:08:57;101089.78;;;3.91
60731;BMP280;46580;52.114;11.674;2023-04-26T05:11:23;101093.06;;;3.94
60731;BMP280;46580;52.114;11.674;2023-04-26T05:13:48;101089.56;;;3.97
60731;BMP280;46580;52.114;11.674;2023-04-26T05:16:14;101095.22;;;4.03
60731;BMP280;46580;52.114;11.674;2023-04-26T05:18:39;101105.31;;;4.05
60731;BMP280;46580;52.114;11.674;2023-04-26T05:21:05;101104.22;;;4.10
60731;BMP280;46580;52.114;11.674;2023-04-26T05:23:30;101108.34;;;4.12
60731;BMP280;46580;52.114;11.674;2023-04-26T05:25:56;101100.44;;;4.18
60731;BMP280;46580;52.114;11.674;2023-04-26T05:28:25;101102.56;;;4.27
60731;BMP280;46580;52.114;11.674;2023-04-26T05:30:50;101105.81;;;4.30
60731;BMP280;46580;52.114;11.674;2023-04-26T05:33:15;101113.31;;;4.33
60731;BMP280;46580;52.114;11.674;2023-04-26T05:35:41;101107.75;;;4.44
60731;BMP280;46580;52.114;11.674;2023-04-26T05:38:06;101114.22;;;4.50
60731;BMP280;46580;52.114;11.674;2023-04-26T05:40:31;101112.56;;;4.49
60731;BMP280;46580;52.114;11.674;2023-04-26T05:42:57;101118.97;;;4.58
60731;BMP280;46580;52.114;11.674;2023-04-26T05:45:22;101111.78;;;4.65
60731;BMP280;46580;52.114;11.674;2023-04-26T05:47:48;101123.28;;;4.74
60731;BMP280;46580;52.114;11.674;2023-04-26T05:50:15;101114.25;;;4.85
60731;BMP280;46580;52.114;11.674;2023-04-26T05:52:41;101122.88;;;4.99
60731;BMP280;46580;52.114;11.674;2023-04-26T05:55:06;101121.78;;;5.04
60731;BMP280;46580;52.114;11.674;2023-04-26T05:57:32;101129.34;;;5.06
60731;BMP280;46580;52.114;11.674;2023-04-26T05:59:58;101122.88;;;5.17
60731;BMP280;46580;52.114;11.674;2023-04-26T06:02:24;101126.53;;;5.28
60731;BMP280;46580;52.114;11.674;2023-04-26T06:04:49;101122.19;;;5.47
60731;BMP280;46580;52.114;11.674;2023-04-26T06:07:15;101123.06;;;5.46
60731;BMP280;46580;52.114;11.674;2023-04-26T06:09:41;101117.97;;;5.46
60731;BMP280;46580;52.114;11.674;2023-04-26T06:12:07;101124.34;;;5.54
60731;BMP280;46580;52.114;11.674;2023-04-26T06:14:32;101114.19;;;5.71
60731;BMP280;46580;52.114;11.674;2023-04-26T06:16:57;101117.75;;;5.83
60731;BMP280;46580;52.114;11.674;2023-04-26T06:19:23;101114.88;;;6.06
60731;BMP280;46580;52.114;11.674;2023-04-26T06:21:48;101107.63;;;6.29
60731;BMP280;46580;52.114;11.674;2023-04-26T06:24:14;101108.50;;;6.44
60731;BMP280;46580;52.114;11.674;2023-04-26T06:26:39;101112.78;;;6.59
60731;BMP280;46580;52.114;11.674;2023-04-26T06:29:05;101108.50;;;6.44
60731;BMP280;46580;52.114;11.674;2023-04-26T06:31:30;101111.28;;;6.55
60731;BMP280;46580;52.114;11.674;2023-04-26T06:33:56;101114.25;;;6.63
60731;BMP280;46580;52.114;11.674;2023-04-26T06:36:21;101117.22;;;6.55
60731;BMP280;46580;52.114;11.674;2023-04-26T06:38:47;101121.34;;;6.43
60731;BMP280;46580;52.114;11.674;2023-04-26T06:41:12;101122.75;;;6.48
60731;BMP280;46580;52.114;11.674;2023-04-26T06:43:38;101125.91;;;6.53
60731;BMP280;46580;52.114;11.674;2023-04-26T06:46:03;101129.28;;;6.53
60731;BMP280;46580;52.114;11.674;2023-04-26T06:48:29;101125.16;;;6.51
60731;BMP280;46580;52.114;11.674;2023-04-26T06:50:54;101123.75;;;6.46
60731;BMP280;46580;52.114;11.674;2023-04-26T06:53:20;101127.16;;;6.46
60731;BMP280;46580;52.114;11.674;2023-04-26T06:55:45;101137.84;;;6.37
60731;BMP280;46580;52.114;11.674;2023-04-26T06:58:11;101138.19;;;6.47
60731;BMP280;46580;52.114;11.674;2023-04-26T07:00:36;101137.38;;;6.46
60731;BMP280;46580;52.114;11.674;2023-04-26T07:03:01;101140.75;;;6.62
60731;BMP280;46580;52.114;11.674;2023-04-26T07:05:27;101136.53;;;6.61
60731;BMP280;46580;52.114;11.674;2023-04-26T07:07:52;101137.28;;;6.63
60731;BMP280;46580;52.114;11.674;2023-04-26T07:10:17;101141.66;;;6.61
60731;BMP280;46580;52.114;11.674;2023-04-26T07:12:43;101130.34;;;6.65
60731;BMP280;46580;52.114;11.674;2023-04-26T07:15:10;101138.19;;;6.77
60731;BMP280;46580;52.114;11.674;2023-04-26T07:17:35;101136.88;;;6.85
60731;BMP280;46580;52.114;11.674;2023-04-26T07:20:00;101136.69;;;6.88
60731;BMP280;46580;52.114;11.674;2023-04-26T07:22:26;101138.13;;;6.78
60731;BMP280;46580;52.114;11.674;2023-04-26T07:24:51;101145.19;;;6.88
60731;BMP280;46580;52.114;11.674;2023-04-26T07:27:17;101146.34;;;6.98
60731;BMP280;46580;52.114;11.674;2023-04-26T07:29:42;101139.38;;;7.15
60731;BMP280;46580;52.114;11.674;2023-04-26T07:32:07;101146.09;;;7.18
60731;BMP280;46580;52.114;11.674;2023-04-26T07:34:33;101150.09;;;7.22
60731;BMP280;46580;52.114;11.674;2023-04-26T07:36:58;101140.69;;;7.22
60731;BMP280;46580;52.114;11.674;2023-04-26T07:39:23;101141.22;;;7.42
60731;BMP280;46580;52.114;11.674;2023-04-26T07:41:48;101148.50;;;7.63
60731;BMP280;46580;52.114;11.674;2023-04-26T07:44:14;101151.28;;;7.60
60731;BMP280;46580;52.114;11.674;2023-04-26T07:46:39;101157.06;;;7.48
60731;BMP280;46580;52.114;11.674;2023-04-26T07:49:05;101147.66;;;7.49
60731;BMP280;46580;52.114;11.674;2023-04-26T07:51:30;101154.97;;;7.83
60731;BMP280;46580;52.114;11.674;2023-04-26T07:53:56;101159.72;;;7.89
60731;BMP280;46580;52.114;11.674;2023-04-26T07:56:22;101164.69;;;7.92
60731;BMP280;46580;52.114;11.674;2023-04-26T07:58:50;101158.78;;;7.77
60731;BMP280;46580;52.114;11.674;2023-04-26T08:01:16;101156.44;;;7.87
60731;BMP280;46580;52.114;11.674;2023-04-26T08:03:41;101150.09;;;8.08
60731;BMP280;46580;52.114;11.674;2023-04-26T08:06:08;101158.50;;;8.10
60731;BMP280;46580;52.114;11.674;2023-04-26T08:08:34;101157.59;;;8.11
60731;BMP280;46580;52.114;11.674;2023-04-26T08:11:06;101154.03;;;8.27
60731;BMP280;46580;52.114;11.674;2023-04-26T08:13:31;101156.16;;;8.48
60731;BMP280;46580;52.114;11.674;2023-04-26T08:15:58;101151.84;;;8.48
60731;BMP280;46580;52.114;11.674;2023-04-26T08:18:23;101162.19;;;8.33
60731;BMP280;46580;52.114;11.674;2023-04-26T08:20:49;101150.00;;;8.50
60731;BMP280;46580;52.114;11.674;2023-04-26T08:23:14;101156.66;;;8.66
60731;BMP280;46580;52.114;11.674;2023-04-26T08:25:40;101160.38;;;8.35
60731;BMP280;46580;52.114;11.674;2023-04-26T08:28:05;101157.22;;;8.30
60731;BMP280;46580;52.114;11.674;2023-04-26T08:30:32;101160.63;;;8.31
60731;BMP280;46580;52.114;11.674;2023-04-26T08:32:58;101154.28;;;8.50
60731;BMP280;46580;52.114;11.674;2023-04-26T08:35:23;101155.22;;;8.62
60731;BMP280;46580;52.114;11.674;2023-04-26T08:37:48;101154.28;;;8.63
60731;BMP280;46580;52.114;11.674;2023-04-26T08:40:21;101152.59;;;8.76
60731;BMP280;46580;52.114;11.674;2023-04-26T08:42:47;101149.47;;;8.85
60731;BMP280;46580;52.114;11.674;2023-04-26T08:45:14;101144.50;;;8.95
60731;BMP280;46580;52.114;11.674;2023-04-26T08:47:46;101150.28;;;8.85
60731;BMP280;46580;52.114;11.674;2023-04-26T08:50:14;101150.75;;;9.17
60731;BMP280;46580;52.114;11.674;2023-04-26T08:52:40;101146.09;;;9.36
60731;BMP280;46580;52.114;11.674;2023-04-26T08:55:08;101150.16;;;9.00
60731;BMP280;46580;52.114;11.674;2023-04-26T08:57:42;101152.25;;;8.82
60731;BMP280;46580;52.114;11.674;2023-04-26T09:00:08;101159.53;;;8.62
60731;BMP280;46580;52.114;11.674;2023-04-26T09:02:34;101157.22;;;8.57
60731;BMP280;46580;52.114;11.674;2023-04-26T09:05:00;101157.56;;;8.65
60731;BMP280;46580;52.114;11.674;2023-04-26T09:07:33;101156.22;;;8.60
60731;BMP280;46580;52.114;11.674;2023-04-26T09:10:00;101165.84;;;8.43
60731;BMP280;46580;52.114;11.674;2023-04-26T09:12:25;101156.53;;;8.42
60731;BMP280;46580;52.114;11.674;2023-04-26T09:14:51;101163.84;;;8.34
60731;BMP280;46580;52.114;11.674;2023-04-26T09:17:30;101159.63;;;8.19
60731;BMP280;46580;52.114;11.674;2023-04-26T09:19:56;101161.75;;;8.27
60731;BMP280;46580;52.114;11.674;2023-04-26T09:22:33;101162.66;;;8.26
60731;BMP280;46580;52.114;11.674;2023-04-26T09:25:00;101160.88;;;8.67
60731;BMP280;46580;52.114;11.674;2023-04-26T09:27:37;101165.38;;;8.50
60731;BMP280;46580;52.114;11.674;2023-04-26T09:35:34;101165.38;;;8.36
60731;BMP280;46580;52.114;11.674;2023-04-26T09:40:32;101168.22;;;8.73
60731;BMP280;46580;52.114;11.674;2023-04-26T09:43:12;101172.63;;;8.57
60731;BMP280;46580;52.114;11.674;2023-04-26T09:45:55;101171.25;;;8.66
60731;BMP280;46580;52.114;11.674;2023-04-26T09:48:21;101169.88;;;8.47
60731;BMP280;46580;52.114;11.674;2023-04-26T09:50:48;101170.91;;;8.84
60731;BMP280;46580;52.114;11.674;2023-04-26T09:53:44;101166.66;;;8.96
60731;BMP280;46580;52.114;11.674;2023-04-26T09:56:13;101155.81;;;9.31
60731;BMP280;46580;52.114;11.674;2023-04-26T09:58:59;101146.53;;;9.80
60731;BMP280;46580;52.114;11.674;2023-04-26T10:01:27;101146.22;;;9.84
60731;BMP280;46580;52.114;11.674;2023-04-26T10:03:55;101151.53;;;9.69
60731;BMP280;46580;52.114;11.674;2023-04-26T10:06:22;101155.53;;;9.73
60731;BMP280;46580;52.114;11.674;2023-04-26T10:08:47;101156.19;;;9.51
60731;BMP280;46580;52.114;11.674;2023-04-26T10:11:12;101160.69;;;9.35
60731;BMP280;46580;52.114;11.674;2023-04-26T10:13:39;101164.06;;;9.10
60731;BMP280;46580;52.114;11.674;2023-04-26T10:16:06;101168.31;;;8.97
60731;BMP280;46580;52.114;11.674;2023-04-26T10:18:32;101164.59;;;8.89
60731;BMP280;46580;52.114;11.674;2023-04-26T10:21:01;101174.53;;;8.81
60731;BMP280;46580;52.114;11.674;2023-04-26T10:23:29;101186.81;;;8.63
60731;BMP280;46580;52.114;11.674;2023-04-26T10:25:55;101175.28;;;8.42
60731;BMP280;46580;52.114;11.674;2023-04-26T10:31:10;101184.00;;;8.54
60731;BMP280;46580;52.114;11.674;2023-04-26T10:33:35;101165.47;;;8.62
60731;BMP280;46580;52.114;11.674;2023-04-26T10:36:10;101180.28;;;8.71
60731;BMP280;46580;52.114;11.674;2023-04-26T10:38:41;101166.78;;;8.95
60731;BMP280;46580;52.114;11.674;2023-04-26T10:41:33;101171.88;;;9.09
60731;BMP280;46580;52.114;11.674;2023-04-26T10:46:59;101171.16;;;9.07
60731;BMP280;46580;52.114;11.674;2023-04-26T10:49:24;101164.72;;;9.13
60731;BMP280;46580;52.114;11.674;2023-04-26T10:52:09;101165.44;;;9.41
60731;BMP280;46580;52.114;11.674;2023-04-26T10:54:55;101160.13;;;9.56
60731;BMP280;46580;52.114;11.674;2023-04-26T10:57:22;101161.13;;;9.80
60731;BMP280;46580;52.114;11.674;2023-04-26T11:05:34;101142.50;;;10.49
60731;BMP280;46580;52.114;11.674;2023-04-26T11:08:14;101149.50;;;9.99
60731;BMP280;46580;52.114;11.674;2023-04-26T11:10:39;101145.44;;;9.70
60731;BMP280;46580;52.114;11.674;2023-04-26T11:13:05;101144.47;;;9.47
60731;BMP280;46580;52.114;11.674;2023-04-26T11:15:31;101160.63;;;9.23
60731;BMP280;46580;52.114;11.674;2023-04-26T11:17:57;101164.44;;;9.04
60731;BMP280;46580;52.114;11.674;2023-04-26T11:20:30;101157.06;;;9.00
60731;BMP280;46580;52.114;11.674;2023-04-26T11:22:56;101156.34;;;8.84
60731;BMP280;46580;52.114;11.674;2023-04-26T11:25:23;101149.72;;;8.68
60731;BMP280;46580;52.114;11.674;2023-04-26T11:27:49;101153.53;;;8.75
60731;BMP280;46580;52.114;11.674;2023-04-26T11:30:17;101154.13;;;8.92
60731;BMP280;46580;52.114;11.674;2023-04-26T11:32:45;101150.69;;;9.05
60731;BMP280;46580;52.114;11.674;2023-04-26T11:35:11;101153.28;;;9.05
60731;BMP280;46580;52.114;11.674;2023-04-26T11:37:36;101153.47;;;9.02
60731;BMP280;46580;52.114;11.674;2023-04-26T11:40:02;101156.47;;;9.09
60731;BMP280;46580;52.114;11.674;2023-04-26T11:42:27;101162.69;;;8.79
60731;BMP280;46580;52.114;11.674;2023-04-26T11:44:55;101155.44;;;8.85
60731;BMP280;46580;52.114;11.674;2023-04-26T11:47:21;101153.13;;;8.94
60731;BMP280;46580;52.114;11.674;2023-04-26T11:49:47;101149.97;;;9.03
60731;BMP280;46580;52.114;11.674;2023-04-26T11:52:13;101149.81;;;9.18
60731;BMP280;46580;52.114;11.674;2023-04-26T11:54:38;101149.81;;;9.44
60731;BMP280;46580;52.114;11.674;2023-04-26T11:57:22;101155.19;;;9.65
60731;BMP280;46580;52.114;11.674;2023-04-26T11:59:47;101153.06;;;9.72
60731;BMP280;46580;52.114;11.674;2023-04-26T12:02:12;101151.38;;;9.59
60731;BMP280;46580;52.114;11.674;2023-04-26T12:04:38;101151.19;;;9.62
60731;BMP280;46580;52.114;11.674;2023-04-26T12:07:05;101165.22;;;9.44
60731;BMP280;46580;52.114;11.674;2023-04-26T12:09:31;101163.19;;;9.49
60731;BMP280;46580;52.114;11.674;2023-04-26T12:11:58;101165.56;;;9.64
60731;BMP280;46580;52.114;11.674;2023-04-26T12:14:36;101150.56;;;10.08
60731;BMP280;46580;52.114;11.674;2023-04-26T12:17:03;101155.69;;;10.08
60731;BMP280;46580;52.114;11.674;2023-04-26T12:19:38;101146.97;;;10.23
60731;BMP280;46580;52.114;11.674;2023-04-26T12:22:05;101153.84;;;10.22
60731;BMP280;46580;52.114;11.674;2023-04-26T12:24:31;101144.91;;;10.16
60731;BMP280;46580;52.114;11.674;2023-04-26T12:27:02;101158.78;;;10.01
60731;BMP280;46580;52.114;11.674;2023-04-26T12:29:29;101164.66;;;9.77
60731;BMP280;46580;52.114;11.674;2023-04-26T12:32:00;101165.72;;;9.75
60731;BMP280;46580;52.114;11.674;2023-04-26T12:34:27;101158.75;;;9.51
60731;BMP280;46580;52.114;11.674;2023-04-26T12:36:52;101158.66;;;9.40
60731;BMP280;46580;52.114;11.674;2023-04-26T12:39:18;101157.28;;;9.35
60731;BMP280;46580;52.114;11.674;2023-04-26T12:41:47;101155.75;;;9.32
60731;BMP280;46580;52.114;11.674;2023-04-26T12:44:14;101161.72;;;9.45
60731;BMP280;46580;52.114;11.674;2023-04-26T12:46:40;101161.72;;;9.45
60731;BMP280;46580;52.114;11.674;2023-04-26T12:49:06;101154.22;;;9.80
60731;BMP280;46580;52.114;11.674;2023-04-26T12:51:31;101157.34;;;9.97
60731;BMP280;46580;52.114;11.674;2023-04-26T12:53:58;101154.03;;;10.32
60731;BMP280;46580;52.114;11.674;2023-04-26T12:56:24;101141.31;;;10.77
60731;BMP280;46580;52.114;11.674;2023-04-26T12:58:49;101143.59;;;11.05
60731;BMP280;46580;52.114;11.674;2023-04-26T13:01:15;101143.50;;;11.29
60731;BMP280;46580;52.114;11.674;2023-04-26T13:03:40;101147.00;;;11.51
60731;BMP280;46580;52.114;11.674;2023-04-26T13:06:07;101143.13;;;11.56
60731;BMP280;46580;52.114;11.674;2023-04-26T13:08:32;101152.59;;;11.79
60731;BMP280;46580;52.114;11.674;2023-04-26T13:10:57;101146.94;;;11.74
60731;BMP280;46580;52.114;11.674;2023-04-26T13:13:23;101149.13;;;11.34
60731;BMP280;46580;52.114;11.674;2023-04-26T13:15:49;101148.53;;;10.96
60731;BMP280;46580;52.114;11.674;2023-04-26T13:18:15;101145.97;;;10.60
60731;BMP280;46580;52.114;11.674;2023-04-26T13:20:41;101143.53;;;10.47
60731;BMP280;46580;52.114;11.674;2023-04-26T13:23:07;101147.81;;;10.58
60731;BMP280;46580;52.114;11.674;2023-04-26T13:25:32;101145.44;;;10.68
60731;BMP280;46580;52.114;11.674;2023-04-26T13:27:57;101146.44;;;10.77
60731;BMP280;46580;52.114;11.674;2023-04-26T13:30:23;101153.06;;;10.92
60731;BMP280;46580;52.114;11.674;2023-04-26T13:32:48;101147.28;;;11.01
60731;BMP280;46580;52.114;11.674;2023-04-26T13:35:13;101146.97;;;11.28
60731;BMP280;46580;52.114;11.674;2023-04-26T13:37:39;101140.63;;;11.78
60731;BMP280;46580;52.114;11.674;2023-04-26T13:40:06;101146.91;;;11.63
60731;BMP280;46580;52.114;11.674;2023-04-26T13:42:31;101152.97;;;11.29
60731;BMP280;46580;52.114;11.674;2023-04-26T13:44:57;101150.59;;;11.03
60731;BMP280;46580;52.114;11.674;2023-04-26T13:47:22;101151.34;;;11.15
60731;BMP280;46580;52.114;11.674;2023-04-26T13:49:47;101151.78;;;11.10
60731;BMP280;46580;52.114;11.674;2023-04-26T13:52:13;101161.91;;;11.00
60731;BMP280;46580;52.114;11.674;2023-04-26T13:54:38;101153.44;;;10.76
60731;BMP280;46580;52.114;11.674;2023-04-26T13:57:06;101163.78;;;10.51
60731;BMP280;46580;52.114;11.674;2023-04-26T13:59:31;101150.72;;;10.54
60731;BMP280;46580;52.114;11.674;2023-04-26T14:01:57;101167.41;;;10.49
60731;BMP280;46580;52.114;11.674;2023-04-26T14:04:23;101160.94;;;10.43
60731;BMP280;46580;52.114;11.674;2023-04-26T14:06:48;101153.19;;;10.56
60731;BMP280;46580;52.114;11.674;2023-04-26T14:09:14;101163.94;;;10.38